Time;durP1;ratioP1;P1;durP2;ratioP2;P2;SDS_P1;SDS_P2;PMS_P1;PMS_P2;Temp;Humidity;BMP_temperature;BMP_pressure;BME280_temperature;BME280_humidity;BME280_pressure;Samples;Min_cycle;Max_cycle;Signal;HPM_P1;HPM_P2
2022/10/25 00:01:35;;;;;;;12.88;3.45;;;14.60;89.60;;;;;;5003329;28;20111;-75
2022/10/25 00:04:00;;;;;;;12.38;3.05;;;14.60;89.60;;;;;;5001445;28;20037;-76
2022/10/25 00:06:26;;;;;;;10.70;3.20;;;14.60;89.60;;;;;;5008851;28;20026;-76
2022/10/25 00:08:52;;;;;;;11.00;3.08;;;14.60;89.60;;;;;;5003294;28;20668;-74
2022/10/25 00:11:23;;;;;;;17.23;2.97;;;14.60;89.60;;;;;;4999969;28;20431;-76
2022/10/25 00:13:51;;;;;;;17.00;3.33;;;14.60;89.60;;;;;;4997315;28;20527;-74
2022/10/25 00:16:21;;;;;;;9.48;3.15;;;14.60;89.60;;;;;;5001037;28;20040;-75
2022/10/25 00:18:46;;;;;;;10.50;2.70;;;14.60;89.50;;;;;;5004776;28;20033;-77
2022/10/25 00:21:12;;;;;;;15.63;3.53;;;14.60;89.60;;;;;;4986533;28;20030;-76
2022/10/25 00:23:38;;;;;;;10.10;3.10;;;14.50;89.60;;;;;;5003034;28;20036;-75
2022/10/25 00:26:06;;;;;;;12.27;3.40;;;14.60;89.60;;;;;;5004996;28;20435;-77
2022/10/25 00:28:31;;;;;;;9.95;2.88;;;14.50;89.50;;;;;;5000484;28;20038;-77
2022/10/25 00:31:09;;;;;;;14.25;3.53;;;14.50;89.60;;;;;;5005510;28;20100;-75
2022/10/25 00:33:36;;;;;;;11.38;3.28;;;14.50;89.50;;;;;;5004867;28;20377;-75
2022/10/25 00:36:20;;;;;;;10.90;3.22;;;14.50;89.50;;;;;;5003870;28;20026;-77
2022/10/25 00:38:46;;;;;;;10.23;2.47;;;14.50;89.50;;;;;;5001890;28;20052;-75
2022/10/25 00:41:14;;;;;;;7.70;2.60;;;14.40;89.40;;;;;;5002944;28;20034;-75
2022/10/25 00:43:49;;;;;;;12.38;2.55;;;14.40;89.40;;;;;;5001023;28;20117;-74
2022/10/25 00:46:22;;;;;;;7.35;2.50;;;14.40;89.30;;;;;;4985146;28;20100;-78
2022/10/25 00:48:56;;;;;;;7.15;2.25;;;14.40;89.30;;;;;;5003081;28;20069;-74
2022/10/25 00:51:27;;;;;;;5.72;1.90;;;14.40;89.20;;;;;;5002103;28;20030;-76
2022/10/25 00:53:53;;;;;;;11.05;2.67;;;14.40;89.20;;;;;;5001304;28;20038;-76
2022/10/25 00:56:24;;;;;;;7.95;1.90;;;14.30;89.30;;;;;;5002521;28;20041;-75
2022/10/25 00:58:53;;;;;;;10.93;2.70;;;14.30;89.20;;;;;;5001093;28;20030;-77
2022/10/25 01:01:19;;;;;;;9.88;2.55;;;14.30;89.30;;;;;;5004389;28;20084;-76
2022/10/25 01:03:48;;;;;;;8.98;2.55;;;14.30;89.40;;;;;;5004933;28;20509;-75
2022/10/25 01:06:21;;;;;;;8.95;2.85;;;14.30;89.30;;;;;;4984244;28;20500;-77
2022/10/25 01:08:48;;;;;;;9.48;2.88;;;14.20;89.40;;;;;;4984997;28;20251;-75
2022/10/25 01:11:14;;;;;;;9.07;2.97;;;14.20;89.40;;;;;;5001615;28;20469;-79
2022/10/25 01:13:40;;;;;;;10.65;2.92;;;14.20;89.60;;;;;;4998909;28;20053;-73
2022/10/25 01:16:29;;;;;;;10.93;2.78;;;14.20;89.60;;;;;;4985890;28;20420;-76
2022/10/25 01:19:05;;;;;;;11.02;2.38;;;14.20;89.50;;;;;;4992968;28;20026;-73
2022/10/25 01:21:45;;;;;;;7.43;2.33;;;14.20;89.50;;;;;;4998514;28;20217;-73
2022/10/25 01:24:47;;;;;;;8.45;3.10;;;14.20;89.50;;;;;;4999333;28;20030;-74
2022/10/25 01:27:32;;;;;;;7.57;2.28;;;14.20;89.50;;;;;;4999940;28;20038;-77
2022/10/25 01:30:00;;;;;;;7.45;2.20;;;14.20;89.50;;;;;;4999101;28;20046;-76
2022/10/25 01:32:56;;;;;;;7.68;2.30;;;14.20;89.50;;;;;;5001939;28;20042;-77
2022/10/25 01:35:48;;;;;;;9.23;2.58;;;14.20;89.40;;;;;;4996268;28;20130;-75
2022/10/25 01:38:22;;;;;;;6.28;2.63;;;14.20;89.40;;;;;;4984050;28;20157;-78
2022/10/25 01:40:54;;;;;;;8.17;2.43;;;14.30;89.50;;;;;;5001317;28;20436;-77
2022/10/25 01:43:22;;;;;;;7.55;2.00;;;14.30;89.40;;;;;;5001834;28;20332;-78
2022/10/25 01:45:59;;;;;;;9.48;2.00;;;14.30;89.30;;;;;;5002376;28;20032;-77
2022/10/25 01:48:33;;;;;;;7.85;2.45;;;14.30;89.20;;;;;;4999312;28;20655;-75
2022/10/25 01:51:11;;;;;;;12.57;2.83;;;14.30;89.20;;;;;;4997448;28;20033;-76
2022/10/25 01:53:48;;;;;;;15.20;3.15;;;14.20;89.30;;;;;;4999951;28;20029;-75
2022/10/25 01:56:28;;;;;;;8.95;2.20;;;14.30;89.20;;;;;;4986997;28;20092;-79
2022/10/25 01:59:17;;;;;;;9.77;2.47;;;14.30;89.20;;;;;;5000099;28;20468;-74
2022/10/25 02:02:14;;;;;;;7.88;2.42;;;14.20;89.20;;;;;;4998735;28;20041;-76
2022/10/25 02:05:29;;;;;;;10.32;2.50;;;14.20;89.30;;;;;;4996559;28;20576;-75
2022/10/25 02:08:14;;;;;;;7.50;2.78;;;14.20;89.40;;;;;;4999219;28;20041;-74
2022/10/25 02:11:08;;;;;;;7.40;2.50;;;14.10;89.30;;;;;;4998402;28;20129;-75
2022/10/25 02:13:51;;;;;;;7.22;2.85;;;14.10;89.20;;;;;;4997419;28;20129;-75
2022/10/25 02:16:24;;;;;;;8.63;2.58;;;14.10;89.30;;;;;;4984445;28;20041;-77
2022/10/25 02:18:54;;;;;;;9.15;2.63;;;14.10;89.40;;;;;;5001185;28;20593;-77
2022/10/25 02:21:21;;;;;;;6.57;2.78;;;14.10;89.40;;;;;;4999783;28;20066;-75
2022/10/25 02:23:49;;;;;;;7.82;2.78;;;14.10;89.40;;;;;;5002463;28;20044;-75
2022/10/25 02:26:16;;;;;;;7.03;2.80;;;14.00;89.50;;;;;;4998755;28;20048;-76
2022/10/25 02:28:43;;;;;;;9.38;3.10;;;14.00;89.50;;;;;;5000925;28;20141;-76
2022/10/25 02:31:13;;;;;;;11.23;3.28;;;13.90;89.50;;;;;;5001570;28;20033;-74
2022/10/25 02:33:41;;;;;;;8.73;2.95;;;13.90;89.70;;;;;;4998566;28;20049;-74
2022/10/25 02:36:14;;;;;;;7.97;2.60;;;13.80;89.80;;;;;;5002781;28;20060;-77
2022/10/25 02:38:41;;;;;;;9.35;2.50;;;13.80;89.70;;;;;;4999693;28;20073;-73
2022/10/25 02:41:07;;;;;;;7.28;2.83;;;13.80;89.80;;;;;;5000454;28;20049;-74
2022/10/25 02:43:33;;;;;;;7.20;2.58;;;13.80;89.90;;;;;;5000133;28;20133;-74
2022/10/25 02:45:58;;;;;;;10.88;3.40;;;13.70;89.90;;;;;;5002371;28;20029;-75
2022/10/25 02:48:25;;;;;;;11.52;3.63;;;13.70;89.90;;;;;;4980240;28;20026;-74
2022/10/25 02:50:50;;;;;;;10.98;3.00;;;13.70;90.00;;;;;;5001167;28;20041;-78
2022/10/25 02:53:16;;;;;;;9.25;3.50;;;13.70;89.90;;;;;;5000306;28;20040;-75
2022/10/25 02:55:42;;;;;;;7.43;2.83;;;13.70;90.00;;;;;;4984100;28;20484;-75
2022/10/25 02:58:08;;;;;;;9.85;3.15;;;13.60;90.10;;;;;;5000612;28;20026;-76
2022/10/25 03:00:34;;;;;;;12.25;3.63;;;13.70;90.00;;;;;;5002247;28;20116;-77
2022/10/25 03:02:59;;;;;;;13.75;3.70;;;13.60;90.10;;;;;;5005532;28;20137;-77
2022/10/25 03:05:25;;;;;;;10.10;3.20;;;13.60;90.20;;;;;;4998978;28;20045;-77
2022/10/25 03:07:50;;;;;;;7.50;2.60;;;13.60;90.20;;;;;;4999705;28;20022;-76
2022/10/25 03:10:16;;;;;;;8.45;3.20;;;13.60;90.30;;;;;;5000605;28;20034;-77
2022/10/25 03:12:42;;;;;;;7.80;3.13;;;13.60;90.20;;;;;;4998078;28;20474;-75
2022/10/25 03:15:08;;;;;;;10.90;3.15;;;13.60;90.30;;;;;;4997481;28;20032;-76
2022/10/25 03:17:33;;;;;;;10.00;2.83;;;13.50;90.40;;;;;;5000954;28;20120;-76
2022/10/25 03:19:59;;;;;;;8.77;3.13;;;13.50;90.40;;;;;;5003123;28;20129;-77
2022/10/25 03:22:24;;;;;;;9.30;3.05;;;13.50;90.40;;;;;;4999284;28;20363;-78
2022/10/25 03:24:50;;;;;;;10.18;3.35;;;13.40;90.40;;;;;;5000915;28;20030;-78
2022/10/25 03:27:16;;;;;;;10.95;3.40;;;13.40;90.40;;;;;;4996743;28;20077;-74
2022/10/25 03:29:42;;;;;;;10.38;3.33;;;13.50;90.40;;;;;;5000550;28;20377;-75
2022/10/25 03:32:08;;;;;;;9.98;3.13;;;13.50;90.30;;;;;;4996626;28;20614;-77
2022/10/25 03:34:33;;;;;;;13.02;3.30;;;13.40;90.30;;;;;;4996973;28;20042;-76
2022/10/25 03:36:59;;;;;;;11.30;3.20;;;13.40;90.40;;;;;;5001903;28;20038;-75
2022/10/25 03:39:25;;;;;;;9.90;3.40;;;13.30;90.40;;;;;;4997648;28;20034;-76
2022/10/25 03:41:51;;;;;;;10.10;2.97;;;13.30;90.40;;;;;;5001972;28;20083;-78
2022/10/25 03:44:16;;;;;;;9.55;3.65;;;13.30;90.40;;;;;;4980071;28;20050;-75
2022/10/25 03:46:42;;;;;;;11.02;3.83;;;13.30;90.40;;;;;;5000703;28;20053;-75
2022/10/25 03:49:07;;;;;;;9.88;3.50;;;13.20;90.50;;;;;;4981530;28;20037;-76
2022/10/25 03:51:33;;;;;;;10.10;3.42;;;13.20;90.70;;;;;;5000151;28;20034;-76
2022/10/25 03:53:59;;;;;;;10.35;3.40;;;13.20;90.60;;;;;;4998907;28;20137;-78
2022/10/25 03:56:24;;;;;;;12.10;4.15;;;13.20;90.60;;;;;;4999078;28;20041;-74
2022/10/25 03:58:50;;;;;;;11.15;4.20;;;13.20;90.60;;;;;;5000990;28;20447;-74
2022/10/25 04:01:15;;;;;;;11.23;4.63;;;13.10;90.70;;;;;;5002640;28;20046;-75
2022/10/25 04:03:43;;;;;;;12.32;4.57;;;13.10;90.70;;;;;;5000028;28;20049;-76
2022/10/25 04:06:09;;;;;;;10.38;4.65;;;13.10;90.70;;;;;;5005739;28;20547;-77
2022/10/25 04:08:36;;;;;;;10.32;4.85;;;13.10;90.70;;;;;;5000122;28;20034;-75
2022/10/25 04:11:02;;;;;;;16.55;4.95;;;13.10;90.80;;;;;;5000178;28;20038;-75
2022/10/25 04:13:27;;;;;;;14.15;4.57;;;13.10;90.90;;;;;;5001365;28;20179;-76
2022/10/25 04:15:53;;;;;;;15.70;5.13;;;13.10;90.80;;;;;;4998647;28;20453;-75
2022/10/25 04:18:19;;;;;;;12.43;4.20;;;13.10;90.80;;;;;;4995879;28;20623;-78
2022/10/25 04:20:44;;;;;;;14.43;4.38;;;13.10;90.80;;;;;;4996256;28;20033;-76
2022/10/25 04:23:10;;;;;;;12.77;4.53;;;13.10;90.80;;;;;;4978499;28;20052;-75
2022/10/25 04:25:36;;;;;;;13.13;4.35;;;13.00;90.90;;;;;;4990676;28;20221;-77
2022/10/25 04:28:01;;;;;;;15.65;4.38;;;13.10;90.90;;;;;;4993580;28;20382;-75
2022/10/25 04:30:27;;;;;;;10.27;4.35;;;13.00;91.00;;;;;;4990118;28;20027;-75
2022/10/25 04:32:53;;;;;;;11.75;4.32;;;13.10;91.00;;;;;;4989076;28;20034;-74
2022/10/25 04:35:18;;;;;;;15.23;4.15;;;13.00;90.90;;;;;;4986459;28;20030;-74
2022/10/25 04:37:44;;;;;;;10.93;4.47;;;13.00;90.80;;;;;;4993937;28;20025;-78
2022/10/25 04:40:10;;;;;;;13.30;4.32;;;13.00;90.80;;;;;;4992308;28;20039;-76
2022/10/25 04:42:36;;;;;;;12.40;4.53;;;13.00;90.80;;;;;;4991639;28;20092;-75
2022/10/25 04:45:02;;;;;;;11.50;4.22;;;13.00;90.80;;;;;;4989184;28;20031;-78
2022/10/25 04:47:31;;;;;;;8.63;4.80;;;13.00;90.80;;;;;;4989204;28;20057;-75
2022/10/25 04:49:57;;;;;;;12.27;4.55;;;13.00;90.70;;;;;;4990897;28;20038;-75
2022/10/25 04:52:22;;;;;;;10.52;3.92;;;13.00;90.80;;;;;;4992637;28;20037;-77
2022/10/25 04:54:48;;;;;;;10.18;4.05;;;12.90;90.70;;;;;;4979128;28;20042;-78
2022/10/25 04:57:14;;;;;;;9.15;3.95;;;12.90;90.70;;;;;;4992934;28;20079;-76
2022/10/25 04:59:39;;;;;;;14.40;4.85;;;12.90;90.70;;;;;;4994250;28;20502;-75
2022/10/25 05:02:05;;;;;;;13.38;4.40;;;12.90;90.70;;;;;;4992808;28;20064;-76
2022/10/25 05:04:30;;;;;;;12.68;4.72;;;12.90;90.70;;;;;;4994731;28;20116;-77
2022/10/25 05:06:56;;;;;;;11.70;5.18;;;12.90;90.70;;;;;;4995826;28;20216;-75
2022/10/25 05:09:22;;;;;;;12.68;5.00;;;12.90;90.80;;;;;;4992932;28;20029;-76
2022/10/25 05:11:47;;;;;;;14.52;5.00;;;12.80;90.90;;;;;;4993903;28;20033;-75
2022/10/25 05:14:13;;;;;;;11.88;4.40;;;12.80;90.90;;;;;;4973894;28;20478;-74
2022/10/25 05:16:39;;;;;;;9.57;4.20;;;12.90;90.90;;;;;;4980055;28;20045;-75
2022/10/25 05:19:05;;;;;;;12.48;5.15;;;12.80;91.00;;;;;;4991790;28;20615;-74
2022/10/25 05:21:30;;;;;;;13.65;5.05;;;12.90;91.10;;;;;;4990486;28;20030;-74
2022/10/25 05:23:57;;;;;;;15.65;4.85;;;12.90;91.10;;;;;;4995350;28;20384;-74
2022/10/25 05:26:23;;;;;;;13.45;5.22;;;12.90;91.10;;;;;;4995839;28;20030;-73
2022/10/25 05:28:51;;;;;;;12.13;5.18;;;12.90;91.10;;;;;;5000126;28;20053;-75
2022/10/25 05:31:20;;;;;;;12.25;4.82;;;12.90;91.10;;;;;;4999102;28;20398;-74
2022/10/25 05:33:51;;;;;;;12.25;5.05;;;12.90;91.10;;;;;;5003294;28;20080;-73
2022/10/25 05:36:18;;;;;;;14.57;5.25;;;12.90;91.00;;;;;;5001090;28;20038;-74
2022/10/25 05:38:44;;;;;;;12.50;5.20;;;12.90;91.10;;;;;;4986115;28;20083;-76
2022/10/25 05:41:11;;;;;;;13.65;5.47;;;12.90;90.90;;;;;;5000310;28;20092;-74
2022/10/25 05:43:37;;;;;;;14.85;5.45;;;12.90;91.00;;;;;;4983369;28;20070;-75
2022/10/25 05:46:15;;;;;;;13.88;5.45;;;12.90;91.10;;;;;;5001986;28;20025;-75
2022/10/25 05:48:42;;;;;;;14.23;6.10;;;12.90;91.10;;;;;;4987269;28;20321;-76
2022/10/25 05:51:11;;;;;;;13.77;5.60;;;12.80;91.10;;;;;;4999845;28;20627;-74
2022/10/25 05:53:40;;;;;;;13.60;5.40;;;12.80;91.10;;;;;;4997543;28;20619;-74
2022/10/25 05:56:06;;;;;;;16.70;5.78;;;12.90;91.10;;;;;;4995910;28;20077;-75
2022/10/25 05:58:31;;;;;;;15.80;5.40;;;12.80;91.10;;;;;;4997638;28;20034;-75
2022/10/25 06:01:00;;;;;;;15.40;6.13;;;12.80;91.20;;;;;;4981394;28;20069;-75
2022/10/25 06:03:26;;;;;;;16.38;5.90;;;12.70;91.20;;;;;;4994920;28;20402;-75
2022/10/25 06:05:52;;;;;;;17.92;6.25;;;12.80;91.30;;;;;;5000565;28;20052;-75
2022/10/25 06:08:17;;;;;;;17.17;7.00;;;12.80;91.30;;;;;;5001344;28;20034;-75
2022/10/25 06:10:43;;;;;;;14.43;6.90;;;12.80;91.30;;;;;;5000345;28;20030;-74
2022/10/25 06:13:08;;;;;;;17.02;6.70;;;12.80;91.30;;;;;;5000248;28;20026;-74
2022/10/25 06:15:37;;;;;;;19.27;6.40;;;12.80;91.30;;;;;;5001322;28;20042;-76
2022/10/25 06:18:02;;;;;;;14.88;6.00;;;12.80;91.40;;;;;;5003705;28;20065;-79
2022/10/25 06:20:28;;;;;;;15.68;7.20;;;12.90;91.60;;;;;;5003478;28;20064;-74
2022/10/25 06:22:54;;;;;;;13.95;6.03;;;13.00;91.50;;;;;;5003573;28;20038;-74
2022/10/25 06:25:19;;;;;;;15.23;6.10;;;13.00;91.30;;;;;;4999948;28;20132;-78
2022/10/25 06:27:45;;;;;;;20.55;6.20;;;13.00;91.20;;;;;;5000604;28;20029;-78
2022/10/25 06:30:11;;;;;;;14.57;5.63;;;13.00;91.10;;;;;;4997777;28;20694;-76
2022/10/25 06:32:37;;;;;;;18.83;6.07;;;13.00;91.10;;;;;;5001210;28;20038;-82
2022/10/25 06:35:03;;;;;;;15.52;6.13;;;13.10;91.10;;;;;;4998975;28;20037;-79
2022/10/25 06:37:29;;;;;;;19.23;5.82;;;13.10;91.00;;;;;;5003033;28;20053;-75
2022/10/25 06:39:54;;;;;;;16.10;6.03;;;13.10;91.00;;;;;;4988771;28;20088;-75
2022/10/25 06:42:20;;;;;;;17.45;5.93;;;13.20;91.00;;;;;;4982279;28;20042;-75
2022/10/25 06:44:46;;;;;;;16.95;5.78;;;13.20;90.90;;;;;;4979936;28;20162;-74
2022/10/25 06:47:11;;;;;;;17.75;5.68;;;13.20;90.80;;;;;;4994534;28;20478;-76
2022/10/25 06:49:37;;;;;;;17.05;5.47;;;13.20;90.70;;;;;;4994048;28;20108;-75
2022/10/25 06:52:02;;;;;;;16.02;5.43;;;13.20;90.70;;;;;;4997196;28;20123;-77
2022/10/25 06:54:28;;;;;;;13.73;4.60;;;13.30;90.60;;;;;;4997274;28;20049;-78
2022/10/25 06:56:54;;;;;;;14.43;5.35;;;13.30;90.50;;;;;;4994321;28;20026;-78
2022/10/25 06:59:19;;;;;;;16.95;5.22;;;13.30;90.40;;;;;;4993397;28;20072;-77
2022/10/25 07:01:46;;;;;;;18.70;5.15;;;13.30;90.40;;;;;;4993011;28;20290;-77
2022/10/25 07:04:11;;;;;;;14.60;4.65;;;13.30;90.30;;;;;;4996276;28;20037;-74
2022/10/25 07:06:38;;;;;;;16.35;5.25;;;13.30;90.20;;;;;;4994846;28;20038;-77
2022/10/25 07:09:05;;;;;;;15.57;5.28;;;13.30;90.30;;;;;;4992289;28;20034;-76
2022/10/25 07:11:32;;;;;;;15.65;5.30;;;13.40;90.20;;;;;;4995570;28;20040;-77
2022/10/25 07:13:59;;;;;;;15.48;5.22;;;13.30;90.20;;;;;;4982478;28;20050;-77
2022/10/25 07:16:25;;;;;;;18.00;5.45;;;13.40;90.10;;;;;;4980310;28;20034;-75
2022/10/25 07:18:51;;;;;;;14.85;4.65;;;13.30;90.10;;;;;;4986933;28;20049;-75
2022/10/25 07:21:21;;;;;;;18.05;5.63;;;13.30;90.10;;;;;;4994295;28;20077;-73
2022/10/25 07:23:49;;;;;;;13.82;4.95;;;13.30;89.90;;;;;;5000417;28;20041;-75
2022/10/25 07:26:27;;;;;;;14.05;5.47;;;13.40;90.00;;;;;;4996486;28;20077;-76
2022/10/25 07:28:54;;;;;;;15.57;4.55;;;13.30;90.00;;;;;;4997968;28;20053;-75
2022/10/25 07:31:22;;;;;;;15.85;5.53;;;13.40;90.00;;;;;;4980040;28;20474;-77
2022/10/25 07:33:49;;;;;;;12.10;4.80;;;13.40;89.90;;;;;;4996475;28;21366;-75
2022/10/25 07:36:15;;;;;;;16.20;5.07;;;13.30;90.00;;;;;;4998393;28;20104;-76
2022/10/25 07:38:41;;;;;;;14.05;4.95;;;13.40;90.10;;;;;;5000781;28;20405;-76
2022/10/25 07:41:07;;;;;;;14.77;5.10;;;13.40;90.00;;;;;;5001222;28;20033;-77
2022/10/25 07:43:34;;;;;;;11.85;5.13;;;13.50;90.00;;;;;;4995029;28;20079;-74
2022/10/25 07:45:59;;;;;;;14.63;5.75;;;13.50;89.90;;;;;;4996545;28;20029;-75
2022/10/25 07:48:25;;;;;;;15.82;5.95;;;13.50;89.80;;;;;;4995489;28;20037;-75
2022/10/25 07:50:51;;;;;;;18.15;5.32;;;13.60;89.80;;;;;;4995963;28;20018;-76
2022/10/25 07:53:17;;;;;;;17.17;5.50;;;13.50;89.60;;;;;;4986937;28;20131;-75
2022/10/25 07:55:42;;;;;;;13.98;6.07;;;13.60;89.50;;;;;;5004142;28;20163;-79
2022/10/25 07:58:11;;;;;;;14.40;4.53;;;13.60;89.40;;;;;;5000373;28;20069;-77
2022/10/25 08:00:37;;;;;;;15.15;4.97;;;13.60;89.40;;;;;;4981369;28;20050;-77
2022/10/25 08:03:03;;;;;;;14.27;5.53;;;13.70;89.20;;;;;;4999384;28;20057;-75
2022/10/25 08:05:28;;;;;;;16.48;5.63;;;13.70;89.10;;;;;;4999538;28;20034;-77
2022/10/25 08:07:54;;;;;;;14.20;5.30;;;13.70;89.00;;;;;;5001050;28;20029;-74
2022/10/25 08:10:20;;;;;;;18.92;6.18;;;13.80;89.20;;;;;;4997954;28;20026;-75
2022/10/25 08:12:47;;;;;;;13.52;5.70;;;13.80;89.00;;;;;;4997840;28;20050;-75
2022/10/25 08:15:14;;;;;;;14.00;4.82;;;13.90;88.90;;;;;;4998292;28;20073;-75
2022/10/25 08:17:39;;;;;;;13.55;4.63;;;14.10;88.90;;;;;;4999037;28;20133;-75
2022/10/25 08:20:06;;;;;;;13.02;4.72;;;14.10;88.70;;;;;;5000514;28;20121;-77
2022/10/25 08:22:32;;;;;;;11.30;4.03;;;14.30;88.20;;;;;;4998408;28;20034;-76
2022/10/25 08:24:58;;;;;;;13.00;4.85;;;14.40;88.00;;;;;;5003542;28;20026;-78
2022/10/25 08:27:23;;;;;;;13.35;4.50;;;14.60;87.60;;;;;;5004114;28;20136;-74
2022/10/25 08:29:50;;;;;;;12.68;5.15;;;14.70;87.10;;;;;;5003606;28;20556;-76
2022/10/25 08:32:16;;;;;;;10.07;4.35;;;14.80;86.30;;;;;;5000886;28;20314;-78
2022/10/25 08:34:42;;;;;;;12.00;4.57;;;15.00;85.90;;;;;;5004449;28;20055;-74
2022/10/25 08:37:11;;;;;;;13.80;4.18;;;15.10;85.40;;;;;;5002137;28;20143;-74
2022/10/25 08:39:36;;;;;;;11.93;3.58;;;15.10;84.50;;;;;;5002241;28;20096;-77
2022/10/25 08:42:02;;;;;;;12.02;3.75;;;15.10;84.50;;;;;;5007565;28;20030;-75
2022/10/25 08:44:45;;;;;;;9.88;3.45;;;15.20;84.70;;;;;;4991441;28;20044;-76
2022/10/25 08:47:35;;;;;;;14.25;3.78;;;15.30;84.60;;;;;;5000398;28;20036;-75
2022/10/25 08:50:15;;;;;;;14.73;3.92;;;15.50;83.80;;;;;;5003260;28;20040;-75
2022/10/25 08:53:19;;;;;;;12.93;3.17;;;15.60;83.30;;;;;;5003085;28;20129;-74
2022/10/25 08:55:46;;;;;;;13.27;4.10;;;15.90;82.80;;;;;;4910191;28;20519;-75
2022/10/25 08:58:21;;;;;;;14.05;3.75;;;16.00;81.90;;;;;;5005135;28;20095;-75
2022/10/25 09:00:48;;;;;;;13.40;3.30;;;15.80;82.10;;;;;;4985111;28;20424;-74
2022/10/25 09:03:24;;;;;;;10.00;3.20;;;15.60;82.40;;;;;;5003061;28;20034;-78
2022/10/25 09:05:58;;;;;;;12.45;3.95;;;15.60;82.90;;;;;;4996093;28;20057;-76
2022/10/25 09:09:03;;;;;;;10.13;3.47;;;15.50;83.20;;;;;;5010069;28;20571;-75
2022/10/25 09:11:44;;;;;;;13.30;4.15;;;15.40;83.30;;;;;;4998081;28;20045;-75
2022/10/25 09:14:27;;;;;;;11.35;3.92;;;15.40;83.70;;;;;;5001870;28;20077;-75
2022/10/25 09:17:04;;;;;;;12.65;3.55;;;15.50;83.50;;;;;;5001913;28;20054;-76
2022/10/25 09:20:22;;;;;;;18.17;5.18;;;15.50;83.90;;;;;;5000934;28;20493;-75
2022/10/25 09:22:53;;;;;;;10.35;3.20;;;15.60;83.80;;;;;;4995624;28;20429;-77
2022/10/25 09:25:38;;;;;;;11.02;4.18;;;15.70;83.30;;;;;;5002030;28;20034;-78
2022/10/25 09:28:10;;;;;;;;;;;16.00;82.90;;;;;;5000204;28;20041;-75
2022/10/25 09:30:42;;;;;;;12.50;4.03;;;16.20;82.50;;;;;;5002867;28;19909;-78
2022/10/25 09:33:14;;;;;;;14.38;4.40;;;16.40;82.00;;;;;;5002457;28;20046;-75
2022/10/25 09:35:48;;;;;;;11.73;3.97;;;16.50;81.50;;;;;;5001974;28;20030;-76
2022/10/25 09:38:22;;;;;;;13.05;4.50;;;16.60;80.90;;;;;;5002661;28;20242;-81
2022/10/25 09:41:00;;;;;;;13.90;4.80;;;16.60;80.50;;;;;;4994669;28;20050;-77
2022/10/25 09:43:34;;;;;;;14.30;4.70;;;16.70;80.10;;;;;;5002047;28;20045;-78
2022/10/25 09:46:13;;;;;;;12.35;4.22;;;16.70;80.20;;;;;;5004978;28;20032;-76
2022/10/25 09:48:49;;;;;;;13.60;4.28;;;16.80;79.90;;;;;;5000829;28;20107;-78
2022/10/25 09:51:31;;;;;;;12.82;3.53;;;16.80;79.90;;;;;;5002079;28;20129;-77
2022/10/25 09:54:01;;;;;;;11.00;3.85;;;16.90;79.30;;;;;;4981564;28;20626;-76
2022/10/25 09:56:26;;;;;;;12.32;3.55;;;16.90;79.40;;;;;;4999240;28;20034;-77
2022/10/25 09:58:52;;;;;;;12.95;3.42;;;17.00;78.80;;;;;;4986385;28;20088;-77
2022/10/25 10:01:27;;;;;;;10.32;3.10;;;17.00;78.70;;;;;;4987132;28;20119;-76
2022/10/25 10:03:54;;;;;;;13.95;3.17;;;17.10;78.80;;;;;;4995232;28;20040;-75
2022/10/25 10:06:26;;;;;;;9.50;2.90;;;17.10;78.70;;;;;;5004227;28;20124;-78
2022/10/25 10:09:00;;;;;;;13.75;3.03;;;17.20;78.90;;;;;;4986743;28;20033;-75
2022/10/25 10:11:27;;;;;;;14.50;4.17;;;17.40;78.80;;;;;;4990173;28;20111;-76
2022/10/25 10:14:02;;;;;;;9.98;2.92;;;17.50;77.60;;;;;;4996294;28;20057;-76
2022/10/25 10:16:35;;;;;;;7.38;2.70;;;17.60;77.90;;;;;;4979730;28;20034;-76
2022/10/25 10:19:18;;;;;;;12.30;2.72;;;17.60;78.20;;;;;;4999664;28;20021;-78
2022/10/25 10:21:51;;;;;;;12.18;3.17;;;17.70;77.00;;;;;;4998440;28;20108;-76
2022/10/25 10:24:33;;;;;;;10.48;2.33;;;17.90;77.50;;;;;;4983323;28;20089;-77
2022/10/25 10:27:04;;;;;;;11.82;3.22;;;18.00;76.50;;;;;;5008863;28;20049;-76
2022/10/25 10:29:36;;;;;;;14.48;2.80;;;18.00;76.10;;;;;;5000608;28;20596;-75
2022/10/25 10:32:20;;;;;;;9.70;3.05;;;18.10;75.70;;;;;;4982990;28;20029;-76
2022/10/25 10:34:52;;;;;;;9.73;3.15;;;18.20;74.70;;;;;;4989261;28;20328;-76
2022/10/25 10:37:22;;;;;;;10.25;2.35;;;18.10;75.40;;;;;;5000323;28;20042;-77
2022/10/25 10:39:59;;;;;;;9.00;2.42;;;18.30;75.90;;;;;;4995673;28;20034;-76
2022/10/25 10:42:35;;;;;;;11.10;2.40;;;18.50;74.50;;;;;;4995111;28;20042;-77
2022/10/25 10:45:07;;;;;;;12.43;2.75;;;18.40;74.20;;;;;;4994646;28;20041;-75
2022/10/25 10:47:41;;;;;;;8.93;2.28;;;18.30;74.60;;;;;;4994972;28;20492;-74
2022/10/25 10:50:19;;;;;;;10.45;2.28;;;18.40;74.90;;;;;;4991767;28;20046;-77
2022/10/25 10:52:47;;;;;;;11.38;3.03;;;18.60;74.00;;;;;;4996537;28;20053;-75
2022/10/25 10:55:19;;;;;;;12.70;3.15;;;18.60;73.90;;;;;;4978046;28;20128;-77
2022/10/25 10:57:44;;;;;;;12.60;2.70;;;18.60;73.40;;;;;;4996078;28;20033;-80
2022/10/25 11:00:21;;;;;;;12.35;2.33;;;18.50;72.60;;;;;;4992072;28;20030;-74
2022/10/25 11:02:47;;;;;;;13.65;2.60;;;18.60;73.60;;;;;;4997108;28;20119;-76
2022/10/25 11:05:36;;;;;;;9.65;2.28;;;18.70;72.60;;;;;;4994895;28;20113;-79
2022/10/25 11:08:16;;;;;;;7.93;2.42;;;18.80;73.00;;;;;;4987167;28;20128;-77
2022/10/25 11:10:42;;;;;;;9.80;2.67;;;18.90;73.00;;;;;;4992602;28;20678;-76
2022/10/25 11:13:19;;;;;;;11.40;3.15;;;18.90;71.70;;;;;;4991770;28;20034;-78
2022/10/25 11:16:06;;;;;;;9.10;2.40;;;18.80;72.00;;;;;;4992867;28;20038;-75
2022/10/25 11:18:49;;;;;;;8.38;1.95;;;18.90;71.40;;;;;;4990878;28;20042;-76
2022/10/25 11:21:27;;;;;;;12.90;2.47;;;19.00;71.30;;;;;;4993811;28;20046;-75
2022/10/25 11:24:24;;;;;;;10.10;2.40;;;19.10;71.00;;;;;;4995247;28;20037;-79
2022/10/25 11:27:09;;;;;;;10.38;2.30;;;19.00;71.30;;;;;;4972429;28;20040;-76
2022/10/25 11:29:43;;;;;;;8.30;2.40;;;18.70;71.20;;;;;;4980431;28;20480;-76
2022/10/25 11:32:51;;;;;;;9.85;2.25;;;18.80;72.00;;;;;;4990610;28;20180;-77
2022/10/25 11:35:27;;;;;;;10.38;2.45;;;18.80;71.70;;;;;;4967361;28;20319;-75
2022/10/25 11:38:04;;;;;;;7.82;2.15;;;18.50;71.50;;;;;;4994758;28;20092;-75
2022/10/25 11:40:35;;;;;;;7.88;2.03;;;18.50;72.30;;;;;;4992157;28;20125;-77
2022/10/25 11:43:22;;;;;;;7.97;2.00;;;18.70;71.70;;;;;;4995962;28;20042;-75
2022/10/25 11:46:02;;;;;;;9.75;2.15;;;18.80;70.60;;;;;;5001761;28;20132;-76
2022/10/25 11:48:39;;;;;;;10.63;2.33;;;18.90;70.90;;;;;;5000448;28;20039;-75
2022/10/25 11:51:35;;;;;;;9.52;1.98;;;18.90;70.40;;;;;;4997373;28;20022;-77
2022/10/25 11:54:32;;;;;;;9.80;2.33;;;18.60;70.30;;;;;;4999151;28;20712;-79
2022/10/25 11:56:58;;;;;;;9.30;2.50;;;18.60;71.20;;;;;;4999257;28;20026;-75
2022/10/25 11:59:31;;;;;;;7.40;2.35;;;18.80;71.60;;;;;;4999412;28;20402;-75
2022/10/25 12:02:28;;;;;;;12.13;2.60;;;19.00;70.90;;;;;;4999262;28;20091;-76
2022/10/25 12:05:02;;;;;;;12.77;2.85;;;19.10;69.40;;;;;;5001393;28;20033;-77
2022/10/25 12:07:35;;;;;;;9.60;2.15;;;19.10;69.70;;;;;;4999444;28;20046;-74
2022/10/25 12:10:16;;;;;;;10.25;2.30;;;19.10;69.50;;;;;;5002206;28;20084;-75
2022/10/25 12:12:51;;;;;;;8.23;2.05;;;19.20;69.40;;;;;;5001503;28;20046;-77
2022/10/25 12:15:23;;;;;;;7.20;1.98;;;19.30;69.10;;;;;;4983674;28;20050;-77
2022/10/25 12:17:50;;;;;;;5.63;1.67;;;19.50;68.60;;;;;;5002084;28;20026;-78
2022/10/25 12:20:22;;;;;;;11.77;2.28;;;19.60;68.40;;;;;;4996388;28;20030;-78
2022/10/25 12:22:50;;;;;;;5.63;1.90;;;19.60;67.70;;;;;;5000222;28;20462;-76
2022/10/25 12:25:28;;;;;;;7.25;2.00;;;19.60;67.50;;;;;;4996025;28;20030;-79
2022/10/25 12:28:27;;;;;;;9.48;2.05;;;19.70;68.00;;;;;;4999359;28;20512;-77
2022/10/25 12:31:19;;;;;;;8.07;2.15;;;19.80;67.10;;;;;;4999683;28;20141;-77
2022/10/25 12:33:57;;;;;;;9.77;2.20;;;19.90;66.30;;;;;;4980602;28;20038;-76
2022/10/25 12:36:33;;;;;;;6.90;1.90;;;19.80;66.60;;;;;;5000049;28;20034;-76
2022/10/25 12:39:03;;;;;;;6.43;1.98;;;19.50;67.30;;;;;;5000931;28;20026;-76
2022/10/25 12:41:35;;;;;;;6.63;1.92;;;19.30;68.30;;;;;;4999264;28;20026;-75
2022/10/25 12:44:06;;;;;;;11.60;2.72;;;19.20;68.90;;;;;;5001128;28;21156;-76
2022/10/25 12:46:32;;;;;;;13.32;2.35;;;19.10;69.30;;;;;;5000552;28;20080;-77
2022/10/25 12:49:32;;;;;;;7.30;2.03;;;19.10;69.10;;;;;;4995346;28;20045;-78
2022/10/25 12:52:22;;;;;;;8.73;2.53;;;19.40;68.30;;;;;;4994206;28;20804;-78
2022/10/25 12:55:02;;;;;;;9.55;2.10;;;19.60;68.10;;;;;;4981215;28;20605;-77
2022/10/25 12:58:11;;;;;;;9.93;2.45;;;19.70;67.10;;;;;;4997670;28;20034;-75
2022/10/25 13:00:55;;;;;;;11.30;1.95;;;19.60;67.00;;;;;;4997144;28;20057;-76
2022/10/25 13:03:37;;;;;;;9.73;2.15;;;19.60;66.70;;;;;;4983610;28;20049;-79